KATY/ATY METAR and TAF weather

Enter ICAO airport designator
Station Type Date Time Source
KATY METAR 2022/10/01 07:53 UTC NOAA

KATY 010753Z AUTO 15012KT 10SM SCT120 17/06 A3005 RMK AO2 SLP170 T01670061


Station Type Date Time Source
KATY Decoded METAR 2022/10/01 07:53 UTC NOAA

WATERTOWN MUNICIPAL AIRPORT, SD, United States (KATY) 44-54N 097-09W 532M
Oct 01, 2022 - 03:53 AM EDT / 2022.10.01 0753 UTC
Wind: from the SSE (150 degrees) at 14 MPH (12 KT):0
Visibility: 10 mile(s):0
Sky conditions: partly cloudy
Temperature: 62.1 F (16.7 C)
Dew Point: 43.0 F (6.1 C)
Relative Humidity: 49%
Pressure (altimeter): 30.05 in. Hg (1017 hPa)
ob: KATY 010753Z AUTO 15012KT 10SM SCT120 17/06 A3005 RMK AO2 SLP170 T01670061
cycle: 8

Station Type Date Time Source
KATY TAF 2022/10/01 06:24 UTC NOAA

TAF KATY 010523Z 0106/0206 14010G17KT P6SM SCT200
FM011500 13011KT P6SM SCT250
FM011700 14012G22KT P6SM SCT150

Example: see airport list